createdAt,value
2019-05-10T00:00:16.461Z,13.73
2019-05-10T00:03:02.215Z,14.23
2019-05-10T00:05:49.170Z,14.53
2019-05-10T00:08:37.020Z,13.50
2019-05-10T00:11:36.587Z,14.97
2019-05-10T00:14:28.960Z,15.13
2019-05-10T00:17:02.087Z,16.20
2019-05-10T00:19:30.047Z,15.47
2019-05-10T00:21:58.161Z,16.47
2019-05-10T00:24:26.245Z,16.50
2019-05-10T00:26:54.255Z,15.13
2019-05-10T00:29:25.151Z,15.90
2019-05-10T00:31:53.000Z,15.30
2019-05-10T00:34:20.874Z,15.73
2019-05-10T00:36:48.877Z,16.77
2019-05-10T00:39:19.391Z,15.53
2019-05-10T00:41:50.281Z,16.37
2019-05-10T00:44:18.259Z,16.13
2019-05-10T00:46:46.144Z,15.60
2019-05-10T00:49:13.982Z,16.43
2019-05-10T00:51:42.110Z,15.73
2019-05-10T00:54:09.902Z,15.33
2019-05-10T00:56:37.662Z,16.33
2019-05-10T00:59:05.987Z,16.37
2019-05-10T01:01:33.975Z,17.17
2019-05-10T01:04:02.153Z,17.43
2019-05-10T01:06:30.696Z,17.07
2019-05-10T01:08:58.469Z,16.70
2019-05-10T01:11:29.714Z,16.33
2019-05-10T01:13:57.675Z,16.67
2019-05-10T01:16:25.733Z,16.43
2019-05-10T01:18:53.688Z,16.43
2019-05-10T01:21:21.528Z,18.13
2019-05-10T01:23:49.464Z,17.43
2019-05-10T01:26:17.626Z,17.40
2019-05-10T01:28:45.969Z,18.47
2019-05-10T01:31:14.027Z,17.10
2019-05-10T01:33:43.868Z,18.10
2019-05-10T01:36:11.737Z,17.73
2019-05-10T01:38:39.678Z,18.03
2019-05-10T01:41:10.020Z,18.03
2019-05-10T01:43:38.302Z,18.00
2019-05-10T01:46:15.534Z,17.40
2019-05-10T01:48:43.377Z,18.13
2019-05-10T01:51:11.349Z,18.60
2019-05-10T01:53:39.278Z,17.40
2019-05-10T01:56:07.490Z,18.43
2019-05-10T01:58:39.341Z,19.53
2019-05-10T02:01:07.086Z,18.20
2019-05-10T02:03:34.977Z,19.37
2019-05-10T02:06:03.040Z,18.13
2019-05-10T02:08:31.224Z,18.37
2019-05-10T02:11:08.192Z,18.20
2019-05-10T02:13:35.951Z,18.47
2019-05-10T02:16:06.918Z,18.97
2019-05-10T02:18:35.458Z,19.13
2019-05-10T02:21:03.293Z,18.60
2019-05-10T02:23:31.061Z,19.37
2019-05-10T02:26:08.852Z,19.33
2019-05-10T02:28:28.550Z,19.60
2019-05-10T02:30:56.525Z,20.07
2019-05-10T02:33:24.746Z,19.20
2019-05-10T02:35:52.698Z,19.20
2019-05-10T02:38:20.920Z,19.97
2019-05-10T02:40:49.043Z,20.27
2019-05-10T02:43:17.248Z,19.83
2019-05-10T02:45:45.390Z,20.10
2019-05-10T02:48:14.002Z,19.80
2019-05-10T02:50:41.892Z,19.87
2019-05-10T02:53:10.673Z,19.20
2019-05-10T02:55:39.129Z,20.33
2019-05-10T02:58:07.703Z,19.43
2019-05-10T03:00:39.268Z,19.30
2019-05-10T03:03:08.227Z,20.47
2019-05-10T03:05:37.761Z,19.20
2019-05-10T03:08:08.903Z,20.67
2019-05-10T03:10:40.009Z,20.07
2019-05-10T03:13:12.465Z,20.50
2019-05-10T03:15:44.095Z,19.47
2019-05-10T03:18:12.185Z,19.47
2019-05-10T03:20:41.360Z,20.60
2019-05-10T03:23:12.146Z,20.60
2019-05-10T03:25:40.943Z,19.87
2019-05-10T03:28:17.434Z,20.43
2019-05-10T03:30:50.042Z,21.60
2019-05-10T03:33:20.676Z,20.40
2019-05-10T03:35:49.801Z,20.93
2019-05-10T03:38:21.322Z,21.07
2019-05-10T03:40:50.215Z,20.83
2019-05-10T03:43:18.570Z,21.30
2019-05-10T03:45:47.403Z,20.83
2019-05-10T03:48:16.875Z,21.63
2019-05-10T03:50:44.842Z,21.53
2019-05-10T03:53:12.884Z,22.50
2019-05-10T03:55:40.912Z,22.10
2019-05-10T03:58:09.039Z,22.33
2019-05-10T04:00:41.849Z,22.10
2019-05-10T04:03:09.738Z,22.20
2019-05-10T04:05:38.368Z,22.77
2019-05-10T04:08:07.938Z,22.97
2019-05-10T04:10:35.659Z,22.97
2019-05-10T04:13:05.473Z,23.17
2019-05-10T04:15:34.717Z,22.80
2019-05-10T04:18:02.785Z,23.67
2019-05-10T04:20:31.273Z,22.23
2019-05-10T04:23:01.337Z,23.53
2019-05-10T04:25:29.419Z,23.83
2019-05-10T04:28:29.755Z,24.47
2019-05-10T04:31:29.735Z,23.07
2019-05-10T04:34:10.388Z,23.50
2019-05-10T04:37:21.463Z,24.00
2019-05-10T04:40:28.441Z,24.93
2019-05-10T11:11:32.502Z,12.37
2019-05-10T11:16:32.024Z,13.83
2019-05-10T11:19:20.577Z,13.80
2019-05-10T11:21:51.206Z,15.10
2019-05-10T11:24:20.802Z,13.47
2019-05-10T11:26:48.798Z,15.13
2019-05-10T11:29:25.311Z,13.37
2019-05-10T11:31:53.504Z,13.93
2019-05-10T11:34:21.710Z,13.37
2019-05-10T11:36:51.144Z,14.53
2019-05-10T11:39:26.029Z,14.33
2019-05-10T11:42:00.548Z,15.43
2019-05-10T11:44:25.593Z,14.63
2019-05-10T11:46:52.351Z,15.93
2019-05-10T11:49:40.619Z,14.67
2019-05-10T11:52:13.121Z,15.27
2019-05-10T11:54:41.952Z,16.03
2019-05-10T11:57:25.316Z,14.20
2019-05-10T11:59:54.036Z,15.00
2019-05-10T12:02:37.336Z,15.57
2019-05-10T12:05:03.654Z,17.13
2019-05-10T12:07:35.314Z,16.90
2019-05-10T12:10:25.574Z,18.07
2019-05-10T12:13:08.556Z,18.20
2019-05-10T12:15:25.802Z,18.57
2019-05-10T12:20:39.350Z,18.60
2019-05-10T12:22:54.886Z,19.17
2019-05-10T12:25:42.101Z,18.80
2019-05-10T12:26:18.180Z,18.47
2019-05-10T12:27:52.906Z,19.33
2019-05-10T12:30:21.815Z,20.03
2019-05-10T12:33:05.060Z,20.67
2019-05-10T12:35:21.355Z,19.47
2019-05-10T12:37:54.260Z,18.27
2019-05-10T12:40:24.168Z,19.77
2019-05-10T12:42:51.761Z,20.40
2019-05-10T12:45:22.930Z,21.63
2019-05-10T12:47:51.769Z,20.53
2019-05-10T12:51:16.469Z,20.90
2019-05-10T12:54:18.463Z,21.87
2019-05-10T12:56:54.259Z,21.73
2019-05-10T13:00:20.950Z,22.40
2019-05-10T13:04:52.307Z,21.80
2019-05-10T13:06:07.499Z,20.87
2019-05-10T13:08:38.988Z,20.73
2019-05-10T13:11:07.728Z,19.80
2019-05-10T13:13:42.817Z,21.77
2019-05-10T13:16:12.189Z,20.37
2019-05-10T13:18:50.590Z,19.77
2019-05-10T13:21:19.532Z,23.33
2019-05-10T13:23:40.336Z,25.50
2019-05-10T13:26:08.243Z,24.20
2019-05-10T13:28:36.249Z,24.57
2019-05-10T13:31:05.903Z,24.03
2019-05-10T13:33:41.615Z,25.03
2019-05-10T13:36:05.101Z,23.53
2019-05-10T13:38:37.084Z,24.53
2019-05-10T13:41:06.169Z,19.20
2019-05-10T13:43:33.875Z,20.47
2019-05-10T13:46:01.797Z,19.90
2019-05-10T13:48:29.792Z,20.13
2019-05-10T13:50:57.610Z,21.43
2019-05-10T13:53:25.594Z,20.63
2019-05-10T13:55:56.681Z,20.20
2019-05-10T13:58:25.097Z,20.60
2019-05-10T14:00:53.000Z,21.53
2019-05-10T14:03:23.540Z,21.30
2019-05-10T14:05:51.405Z,20.47
2019-05-10T14:08:19.702Z,21.03
2019-05-10T14:10:49.625Z,20.90
2019-05-10T14:13:17.533Z,22.00
2019-05-10T14:15:45.671Z,20.70
2019-05-10T14:18:13.392Z,19.97
2019-05-10T14:20:41.091Z,20.40
2019-05-10T14:23:08.799Z,22.20
2019-05-10T14:25:38.735Z,21.03
2019-05-10T14:28:09.532Z,21.40
2019-05-10T14:30:35.992Z,21.37
2019-05-10T14:33:08.612Z,21.97
2019-05-10T14:35:33.726Z,21.70
2019-05-10T14:38:08.244Z,21.20
2019-05-10T14:40:31.630Z,21.40
2019-05-10T14:42:59.477Z,20.47
2019-05-10T14:45:29.312Z,22.00
2019-05-10T14:47:58.965Z,22.70
2019-05-10T14:50:28.474Z,22.30
2019-05-10T14:52:56.315Z,21.77
2019-05-10T14:55:28.041Z,21.40
2019-05-10T14:57:53.880Z,20.83
2019-05-10T15:00:25.727Z,20.87
2019-05-10T15:02:56.792Z,20.43
2019-05-10T15:05:23.289Z,20.87
2019-05-10T15:07:51.511Z,21.17
2019-05-10T15:10:19.398Z,20.80
2019-05-10T15:12:47.301Z,21.77
2019-05-10T15:15:15.340Z,20.43
2019-05-10T15:17:43.136Z,21.80
2019-05-10T15:20:10.982Z,21.97
2019-05-10T15:22:39.094Z,20.57
2019-05-10T15:25:07.363Z,20.70
2019-05-10T15:27:46.701Z,20.27
2019-05-10T15:30:14.786Z,20.80
2019-05-10T15:32:42.556Z,19.97
2019-05-10T15:35:11.052Z,20.97
2019-05-10T15:37:40.844Z,20.03
2019-05-10T15:40:09.208Z,20.07
2019-05-10T15:42:38.462Z,19.97
2019-05-10T15:45:12.095Z,20.03
2019-05-10T15:47:50.051Z,20.70
2019-05-10T15:50:06.530Z,19.50
2019-05-10T15:52:39.567Z,20.87
2019-05-10T15:55:05.544Z,20.17
2019-05-10T15:57:35.518Z,20.20
2019-05-10T16:00:04.287Z,20.57
2019-05-10T16:02:32.065Z,20.43
2019-05-10T16:04:59.798Z,19.83
2019-05-10T16:07:27.503Z,20.57
2019-05-10T16:09:56.219Z,21.40
2019-05-10T16:12:24.401Z,21.20
2019-05-10T16:14:52.088Z,20.27
2019-05-10T16:17:23.819Z,21.60
2019-05-10T16:19:50.394Z,19.93
2019-05-10T16:22:19.064Z,21.27
2019-05-10T16:24:46.950Z,21.93
2019-05-10T16:27:14.815Z,20.17
2019-05-10T16:29:42.557Z,20.97
2019-05-10T16:32:10.486Z,21.33
2019-05-10T16:34:38.393Z,20.10
2019-05-10T16:37:06.036Z,21.10
2019-05-10T16:39:34.730Z,20.13
2019-05-10T16:42:02.657Z,19.47
2019-05-10T16:44:32.591Z,18.53
2019-05-10T16:47:00.270Z,17.93
2019-05-10T16:49:28.249Z,18.90
2019-05-10T16:51:56.105Z,18.73
2019-05-10T16:54:25.539Z,18.10
2019-05-10T16:56:59.514Z,17.90
2019-05-10T16:59:29.299Z,18.03
2019-05-10T17:02:03.470Z,18.40
2019-05-10T17:04:23.296Z,19.03
2019-05-10T17:06:50.911Z,18.27
2019-05-10T17:09:19.842Z,19.03
2019-05-10T17:11:48.667Z,19.23
2019-05-10T17:14:18.006Z,19.20
2019-05-10T17:16:49.497Z,18.77
2019-05-10T17:19:15.876Z,20.53
2019-05-10T17:21:43.704Z,19.50
2019-05-10T17:24:11.522Z,19.23
2019-05-10T17:26:39.615Z,20.63
2019-05-10T17:29:12.477Z,19.70
2019-05-10T17:31:39.704Z,20.13
2019-05-10T17:34:07.789Z,19.03
2019-05-10T17:36:35.633Z,18.20
2019-05-10T17:39:05.632Z,19.07
2019-05-10T17:41:33.505Z,19.10
2019-05-10T17:44:01.503Z,20.43
2019-05-10T17:46:29.255Z,20.00
2019-05-10T17:48:57.097Z,21.17
2019-05-10T17:51:25.168Z,20.67
2019-05-10T17:53:55.051Z,18.73
2019-05-10T17:56:22.524Z,20.97
2019-05-10T17:58:50.275Z,20.63
2019-05-10T18:01:18.167Z,19.90
2019-05-10T18:03:47.221Z,21.43
2019-05-10T18:06:23.530Z,21.23
2019-05-10T18:08:44.986Z,21.00
2019-05-10T18:11:13.083Z,22.03
2019-05-10T18:13:42.513Z,21.97
2019-05-10T18:16:10.997Z,23.03
2019-05-10T18:18:46.253Z,22.10
2019-05-10T18:21:08.663Z,21.83
2019-05-10T18:23:36.832Z,21.70
2019-05-10T18:26:04.733Z,23.17
2019-05-10T18:28:32.620Z,23.90
2019-05-10T18:31:00.532Z,21.90
2019-05-10T18:33:28.329Z,23.30
2019-05-10T18:35:56.130Z,24.23
2019-05-10T18:38:24.187Z,24.80
2019-05-10T18:40:54.014Z,25.33
2019-05-10T18:43:21.880Z,26.50
2019-05-10T18:45:50.032Z,26.63
2019-05-10T18:48:17.976Z,26.70
2019-05-10T18:50:47.376Z,27.67
2019-05-10T18:53:15.340Z,26.40
2019-05-10T18:55:43.273Z,26.63
2019-05-10T18:58:11.161Z,27.17
2019-05-10T19:00:40.286Z,27.43
2019-05-10T19:03:08.227Z,28.70
2019-05-10T19:05:36.158Z,27.77
2019-05-10T19:08:06.003Z,28.57
2019-05-10T19:10:34.564Z,29.80
2019-05-10T19:13:04.885Z,29.23
2019-05-10T19:15:32.060Z,28.23
2019-05-10T19:18:00.160Z,30.27
2019-05-10T19:20:28.084Z,30.10
2019-05-10T19:22:56.018Z,29.77
2019-05-10T19:25:23.941Z,28.47
2019-05-10T19:27:54.577Z,29.83
2019-05-10T19:30:22.641Z,30.43
2019-05-10T19:32:51.114Z,30.40
2019-05-10T19:35:20.312Z,30.73
2019-05-10T19:37:48.220Z,30.83
2019-05-10T19:40:16.316Z,31.20
2019-05-10T19:42:44.919Z,30.37
2019-05-10T19:45:19.416Z,31.67
2019-05-10T19:47:43.171Z,30.93
2019-05-10T19:50:11.178Z,31.73
2019-05-10T19:52:39.021Z,31.13
2019-05-10T19:55:13.185Z,31.97
2019-05-10T19:57:39.936Z,32.63
2019-05-10T20:00:08.305Z,33.40
2019-05-10T20:02:36.173Z,34.63
2019-05-10T20:05:04.695Z,31.00
2019-05-10T20:07:45.247Z,32.70
2019-05-10T20:10:07.528Z,35.10
2019-05-10T20:12:34.471Z,33.43
2019-05-10T20:15:02.266Z,34.30
2019-05-10T20:17:30.349Z,34.20
2019-05-10T20:19:58.336Z,33.77
2019-05-10T20:22:26.289Z,36.73
2019-05-10T20:24:54.136Z,34.13
2019-05-10T20:27:22.122Z,34.53
2019-05-10T20:29:49.973Z,34.53
2019-05-10T20:32:17.972Z,34.97
2019-05-10T20:34:47.041Z,35.50
2019-05-10T20:37:15.393Z,35.17
2019-05-10T20:39:43.428Z,34.90
2019-05-10T20:42:11.493Z,35.73
2019-05-10T20:44:39.369Z,35.70
2019-05-10T20:47:07.133Z,35.60
2019-05-10T20:49:34.996Z,35.30
2019-05-10T20:52:04.705Z,34.20
2019-05-10T20:54:32.622Z,34.00
2019-05-10T20:57:00.426Z,35.10
2019-05-10T20:59:28.224Z,34.37
2019-05-10T21:01:56.237Z,36.10
2019-05-10T21:04:24.286Z,34.27
2019-05-10T21:06:52.107Z,34.07
2019-05-10T21:09:20.106Z,35.33
2019-05-10T21:11:47.841Z,35.03
2019-05-10T21:14:15.959Z,36.20
2019-05-10T21:16:43.825Z,37.27
2019-05-10T21:19:11.749Z,35.90
2019-05-10T21:21:39.868Z,34.30
2019-05-10T21:24:08.375Z,36.47
2019-05-10T21:26:36.407Z,35.37
2019-05-10T21:29:04.222Z,34.67
2019-05-10T21:31:33.999Z,34.63
2019-05-10T21:34:09.784Z,35.17
2019-05-10T21:36:32.175Z,34.77
2019-05-10T21:39:00.015Z,35.53
2019-05-10T21:41:28.193Z,36.50
2019-05-10T21:43:56.174Z,37.53
2019-05-10T21:46:23.943Z,35.83
2019-05-10T21:48:51.703Z,35.27
2019-05-10T21:51:19.610Z,36.00
2019-05-10T21:53:47.643Z,35.03
2019-05-10T21:56:15.612Z,34.97
2019-05-10T21:58:43.505Z,34.80
2019-05-10T22:01:14.666Z,38.30
2019-05-10T22:03:42.424Z,36.57
2019-05-10T22:06:10.281Z,35.43
2019-05-10T22:08:49.080Z,36.70
2019-05-10T22:11:09.408Z,36.87
2019-05-10T22:13:37.189Z,37.30
2019-05-10T22:16:05.009Z,36.03
2019-05-10T22:18:33.177Z,36.77
2019-05-10T22:21:01.225Z,35.77
2019-05-10T22:23:29.101Z,36.87
2019-05-10T22:25:56.860Z,36.37
2019-05-10T22:28:26.083Z,36.97
2019-05-10T22:30:53.888Z,35.47
2019-05-10T22:33:24.058Z,35.90
2019-05-10T22:35:51.921Z,37.87
2019-05-10T22:38:20.209Z,37.20
2019-05-10T22:40:48.105Z,35.07
2019-05-10T22:43:16.157Z,39.73
2019-05-10T22:45:44.110Z,39.27
2019-05-10T22:48:12.401Z,42.77
2019-05-10T22:50:41.116Z,44.53
2019-05-10T22:53:09.012Z,43.80
2019-05-10T22:55:36.941Z,45.30
2019-05-10T22:58:04.927Z,44.00
2019-05-10T23:00:33.046Z,43.73
2019-05-10T23:03:00.962Z,44.97
2019-05-10T23:05:28.926Z,44.23
2019-05-10T23:07:56.789Z,45.23
2019-05-10T23:10:24.740Z,44.73
2019-05-10T23:12:52.885Z,44.27
2019-05-10T23:15:20.862Z,45.00
2019-05-10T23:17:48.725Z,44.83
2019-05-10T23:20:16.696Z,43.37
2019-05-10T23:22:44.543Z,43.27
2019-05-10T23:25:12.407Z,42.60
2019-05-10T23:27:40.257Z,42.33
2019-05-10T23:30:08.416Z,42.73
2019-05-10T23:32:36.189Z,44.23
2019-05-10T23:35:04.367Z,43.43
2019-05-10T23:37:32.144Z,42.60
2019-05-10T23:39:59.942Z,42.93
2019-05-10T23:42:27.864Z,42.67
2019-05-10T23:44:55.833Z,43.80
2019-05-10T23:47:23.662Z,41.97
2019-05-10T23:49:51.595Z,41.37
2019-05-10T23:52:19.513Z,40.67
2019-05-10T23:54:47.480Z,42.53
2019-05-10T23:57:15.256Z,43.23
2019-05-10T23:59:45.662Z,40.07
